createdAt,value
2018-08-22T00:01:16.699Z,99.90
2018-08-22T00:03:45.130Z,99.90
2018-08-22T00:06:13.591Z,99.90
2018-08-22T00:08:42.949Z,99.90
2018-08-22T00:11:12.086Z,99.90
2018-08-22T00:13:40.670Z,99.90
2018-08-22T00:16:09.092Z,99.90
2018-08-22T00:18:37.516Z,99.90
2018-08-22T00:21:05.982Z,99.90
2018-08-22T00:23:34.464Z,99.90
2018-08-22T00:26:02.919Z,99.90
2018-08-22T00:28:31.332Z,99.90
2018-08-22T00:30:59.857Z,99.90
2018-08-22T00:33:28.307Z,99.90
2018-08-22T00:35:56.728Z,99.90
2018-08-22T00:38:25.176Z,99.90
2018-08-22T00:40:53.589Z,99.90
2018-08-22T00:43:22.019Z,99.90
2018-08-22T00:45:50.471Z,99.90
2018-08-22T00:48:18.892Z,99.90
2018-08-22T00:50:47.353Z,99.90
2018-08-22T00:53:15.789Z,99.90
2018-08-22T00:55:44.217Z,99.90
2018-08-22T00:58:12.665Z,99.90
2018-08-22T01:00:41.102Z,99.90
2018-08-22T01:03:09.548Z,99.90
2018-08-22T01:05:37.981Z,99.90
2018-08-22T01:08:06.428Z,99.90
2018-08-22T01:10:34.897Z,99.90
2018-08-22T01:13:03.337Z,99.90
2018-08-22T01:15:31.811Z,99.90
2018-08-22T01:18:00.233Z,99.90
2018-08-22T01:20:29.057Z,99.90
2018-08-22T01:22:57.592Z,99.90
2018-08-22T01:25:26.025Z,99.90
2018-08-22T01:27:54.485Z,99.90
2018-08-22T01:30:22.911Z,99.90
2018-08-22T01:32:51.371Z,99.90
2018-08-22T01:35:19.801Z,99.90
2018-08-22T01:37:48.246Z,99.90
2018-08-22T01:40:16.714Z,99.90
2018-08-22T01:42:45.161Z,99.90
2018-08-22T01:45:13.634Z,99.90
2018-08-22T01:47:42.064Z,99.90
2018-08-22T01:50:10.509Z,99.90
2018-08-22T01:52:38.936Z,99.90
2018-08-22T01:55:07.413Z,99.90
2018-08-22T01:57:35.825Z,99.90
2018-08-22T02:00:04.413Z,99.90
2018-08-22T02:02:32.844Z,99.90
2018-08-22T02:05:01.276Z,99.90
2018-08-22T02:07:29.777Z,99.90
2018-08-22T02:09:58.195Z,99.90
2018-08-22T02:12:26.663Z,99.90
2018-08-22T02:14:55.074Z,99.90
2018-08-22T02:17:23.503Z,99.90
2018-08-22T02:19:51.966Z,99.90
2018-08-22T02:22:20.392Z,99.90
2018-08-22T02:24:48.822Z,99.90
2018-08-22T02:27:17.276Z,99.90
2018-08-22T02:29:45.717Z,99.90
2018-08-22T02:32:14.153Z,99.90
2018-08-22T02:34:42.622Z,99.90
2018-08-22T02:37:11.052Z,99.90
2018-08-22T02:39:39.482Z,99.90
2018-08-22T02:42:07.922Z,99.90
2018-08-22T02:44:36.353Z,99.90
2018-08-22T02:47:04.824Z,99.90
2018-08-22T02:49:33.248Z,99.90
2018-08-22T02:52:01.678Z,99.90
2018-08-22T02:54:30.103Z,99.90
2018-08-22T02:56:58.555Z,99.90
2018-08-22T02:59:26.966Z,99.90
2018-08-22T03:01:55.370Z,99.90
2018-08-22T03:04:23.833Z,99.90
2018-08-22T03:06:52.238Z,99.90
2018-08-22T03:09:20.717Z,99.90
2018-08-22T03:11:49.133Z,99.90
2018-08-22T03:14:17.577Z,99.90
2018-08-22T03:16:46.118Z,99.90
2018-08-22T03:19:14.531Z,99.90
2018-08-22T03:21:42.961Z,99.90
2018-08-22T03:24:11.380Z,99.90
2018-08-22T03:26:39.810Z,99.90
2018-08-22T03:29:08.240Z,99.90
2018-08-22T03:31:36.666Z,99.90
2018-08-22T03:34:05.109Z,99.90
2018-08-22T03:36:33.560Z,99.90
2018-08-22T03:39:02.058Z,99.90
2018-08-22T03:41:30.477Z,99.90
2018-08-22T03:43:58.920Z,99.90
2018-08-22T03:46:27.334Z,99.90
2018-08-22T03:48:55.773Z,99.90
2018-08-22T03:51:24.225Z,99.90
2018-08-22T03:53:52.646Z,99.90
2018-08-22T03:56:21.087Z,99.90
2018-08-22T03:58:49.541Z,99.90
2018-08-22T04:01:17.962Z,99.90
2018-08-22T04:03:46.388Z,99.90
2018-08-22T04:06:14.821Z,99.90
2018-08-22T04:08:43.239Z,99.90
2018-08-22T04:11:11.663Z,99.90
2018-08-22T04:13:40.100Z,99.90
2018-08-22T04:16:08.517Z,99.90
2018-08-22T04:18:36.965Z,99.90
2018-08-22T04:21:05.513Z,99.90
2018-08-22T04:23:33.965Z,99.90
2018-08-22T04:26:02.380Z,99.90
2018-08-22T04:28:30.856Z,99.90
2018-08-22T04:30:59.338Z,99.90
2018-08-22T04:33:27.729Z,99.90
2018-08-22T04:35:56.166Z,99.90
2018-08-22T04:38:24.582Z,99.90
2018-08-22T04:40:53.039Z,99.90
2018-08-22T04:43:21.470Z,99.90
2018-08-22T04:45:49.919Z,99.90
2018-08-22T04:48:18.409Z,99.90
2018-08-22T04:50:46.776Z,99.90
2018-08-22T04:53:15.333Z,99.90
2018-08-22T04:55:43.767Z,99.90
2018-08-22T04:58:12.209Z,99.90
2018-08-22T05:00:40.666Z,99.90
2018-08-22T05:03:09.075Z,99.90
2018-08-22T05:05:37.513Z,99.90
2018-08-22T05:08:05.953Z,99.90
2018-08-22T05:10:34.394Z,99.90
2018-08-22T05:13:02.806Z,99.90
2018-08-22T05:15:31.309Z,99.90
2018-08-22T05:17:59.780Z,99.90
2018-08-22T05:20:28.210Z,99.90
2018-08-22T05:22:56.656Z,99.90
2018-08-22T05:25:25.090Z,99.90
2018-08-22T05:27:53.525Z,99.90
2018-08-22T05:30:21.933Z,99.90
2018-08-22T05:32:50.417Z,99.90
2018-08-22T05:35:18.837Z,99.90
2018-08-22T05:37:47.293Z,99.90
2018-08-22T05:40:15.753Z,99.90
2018-08-22T05:42:44.181Z,99.90
2018-08-22T05:45:12.628Z,99.90
2018-08-22T05:47:41.062Z,99.90
2018-08-22T05:50:09.523Z,99.90
2018-08-22T05:52:37.940Z,99.90
2018-08-22T05:55:06.373Z,99.90
2018-08-22T05:57:34.868Z,99.90
2018-08-22T06:00:03.339Z,99.90
2018-08-22T06:02:31.802Z,99.90
2018-08-22T06:05:00.238Z,99.90
2018-08-22T06:07:28.705Z,99.90
2018-08-22T06:09:57.150Z,99.90
2018-08-22T06:12:25.597Z,99.90
2018-08-22T06:14:54.033Z,99.90
2018-08-22T06:17:22.490Z,99.90
2018-08-22T06:19:51.202Z,99.90
2018-08-22T06:22:19.670Z,99.90
2018-08-22T06:24:48.181Z,99.30
2018-08-22T06:27:16.629Z,97.50
2018-08-22T06:29:45.085Z,96.70
2018-08-22T06:32:13.555Z,96.70
2018-08-22T06:34:42.014Z,96.20
2018-08-22T06:37:10.460Z,94.70
2018-08-22T06:39:38.888Z,94.90
2018-08-22T06:42:07.314Z,94.60
2018-08-22T06:44:35.856Z,92.70
2018-08-22T06:47:04.277Z,90.60
2018-08-22T06:49:32.711Z,91.10
2018-08-22T06:52:01.139Z,90.20
2018-08-22T06:54:29.573Z,89.40
2018-08-22T06:56:58.026Z,90.00
2018-08-22T06:59:26.473Z,90.00
2018-08-22T07:01:54.894Z,87.60
2018-08-22T07:04:23.367Z,84.50
2018-08-22T07:06:51.796Z,81.50
2018-08-22T07:09:20.321Z,78.30
2018-08-22T07:11:48.757Z,80.80
2018-08-22T07:14:17.181Z,79.70
2018-08-22T07:16:45.658Z,76.50
2018-08-22T07:19:14.101Z,72.70
2018-08-22T07:21:42.603Z,71.20
2018-08-22T07:24:11.058Z,71.30
2018-08-22T07:26:39.509Z,69.70
2018-08-22T07:29:07.939Z,66.90
2018-08-22T07:31:36.390Z,64.20
2018-08-22T07:34:04.886Z,64.70
2018-08-22T07:36:33.348Z,68.60
2018-08-22T07:39:01.822Z,69.20
2018-08-22T07:41:30.261Z,70.30
2018-08-22T07:43:58.820Z,69.00
2018-08-22T07:46:27.257Z,69.10
2018-08-22T07:48:55.774Z,69.50
2018-08-22T07:51:25.238Z,71.60
2018-08-22T07:53:53.657Z,70.00
2018-08-22T07:56:23.861Z,71.30
2018-08-22T07:59:03.876Z,74.80
2018-08-22T08:01:32.374Z,73.20
2018-08-22T08:04:00.821Z,70.50
2018-08-22T08:06:29.243Z,68.90
2018-08-22T08:08:57.711Z,67.60
2018-08-22T08:11:26.171Z,65.60
2018-08-22T08:13:54.626Z,63.70
2018-08-22T08:16:23.065Z,65.10
2018-08-22T08:18:51.527Z,61.90
2018-08-22T08:21:19.974Z,59.80
2018-08-22T08:23:48.406Z,58.10
2018-08-22T08:26:16.878Z,57.50
2018-08-22T08:28:45.297Z,58.30
2018-08-22T08:31:13.777Z,57.10
2018-08-22T08:33:42.238Z,54.30
2018-08-22T08:36:10.756Z,53.30
2018-08-22T08:38:39.344Z,53.50
2018-08-22T08:41:07.765Z,53.00
2018-08-22T08:43:36.334Z,53.00
2018-08-22T08:46:05.039Z,53.50
2018-08-22T08:48:33.624Z,49.90
2018-08-22T08:51:02.074Z,49.80
2018-08-22T08:53:30.550Z,49.00
2018-08-22T08:55:58.968Z,47.40
2018-08-22T08:58:27.406Z,47.50
2018-08-22T09:00:55.851Z,45.90
2018-08-22T09:03:24.352Z,47.50
2018-08-22T09:05:52.833Z,47.00
2018-08-22T09:08:21.270Z,45.10
2018-08-22T09:10:49.861Z,43.70
2018-08-22T09:13:18.188Z,43.90
2018-08-22T09:15:46.692Z,44.20
2018-08-22T09:18:15.096Z,43.90
2018-08-22T09:20:43.525Z,46.00
2018-08-22T09:23:11.983Z,45.70
2018-08-22T09:25:40.413Z,44.10
2018-08-22T09:28:08.887Z,44.70
2018-08-22T09:30:37.285Z,43.10
2018-08-22T09:33:05.841Z,42.00
2018-08-22T09:35:34.332Z,40.80
2018-08-22T09:38:02.745Z,39.50
2018-08-22T09:40:31.255Z,40.30
2018-08-22T09:43:00.066Z,38.10
2018-08-22T09:45:28.507Z,36.00
2018-08-22T09:47:56.941Z,37.00
2018-08-22T09:50:25.387Z,36.60
2018-08-22T09:52:53.812Z,36.60
2018-08-22T09:55:22.224Z,35.10
2018-08-22T09:57:50.677Z,35.10
2018-08-22T10:00:24.359Z,35.40
2018-08-22T10:02:52.821Z,35.70
2018-08-22T10:05:21.240Z,37.10
2018-08-22T10:07:49.660Z,34.10
2018-08-22T10:12:46.253Z,34.60
2018-08-22T10:15:14.694Z,31.00
2018-08-22T10:17:43.125Z,32.90
2018-08-22T10:20:11.566Z,33.10
2018-08-22T10:22:39.997Z,32.70
2018-08-22T10:25:08.445Z,33.20
2018-08-22T10:27:36.886Z,33.20
2018-08-22T10:30:05.873Z,33.40
2018-08-22T10:32:34.561Z,33.80
2018-08-22T10:35:03.206Z,33.70
2018-08-22T10:37:31.730Z,33.10
2018-08-22T10:40:00.154Z,32.30
2018-08-22T10:42:28.617Z,31.90
2018-08-22T10:44:57.038Z,32.20
2018-08-22T10:47:25.813Z,33.20
2018-08-22T10:49:54.264Z,33.70
2018-08-22T10:52:22.683Z,33.50
2018-08-22T10:55:22.034Z,34.70
2018-08-22T10:57:50.521Z,34.80
2018-08-22T11:00:19.345Z,33.90
2018-08-22T11:02:47.826Z,32.40
2018-08-22T11:05:17.347Z,31.50
2018-08-22T11:07:45.781Z,30.70
2018-08-22T11:10:14.194Z,30.70
2018-08-22T11:12:42.625Z,31.40
2018-08-22T11:15:11.047Z,32.50
2018-08-22T11:17:39.510Z,33.70
2018-08-22T11:20:07.926Z,32.50
2018-08-22T11:22:47.737Z,35.50
2018-08-22T11:25:27.374Z,32.40
2018-08-22T11:28:06.861Z,33.80
2018-08-22T11:30:46.653Z,33.70
2018-08-22T11:33:26.292Z,33.80
2018-08-22T11:35:53.576Z,34.20
2018-08-22T11:38:22.028Z,34.30
2018-08-22T11:40:50.488Z,35.60
2018-08-22T11:43:18.906Z,35.50
2018-08-22T11:45:47.353Z,34.40
2018-08-22T11:48:15.778Z,37.00
2018-08-22T11:50:44.224Z,34.80
2018-08-22T11:53:12.645Z,35.10
2018-08-22T11:55:41.120Z,34.50
2018-08-22T11:58:09.671Z,32.40
2018-08-22T12:00:38.385Z,33.00
2018-08-22T12:03:06.849Z,34.00
2018-08-22T12:05:35.294Z,34.10
2018-08-22T12:08:03.749Z,35.00
2018-08-22T12:10:32.704Z,34.80
2018-08-22T12:13:02.903Z,34.30
2018-08-22T12:15:31.400Z,33.80
2018-08-22T12:17:59.825Z,34.90
2018-08-22T12:20:28.523Z,33.30
2018-08-22T12:22:56.971Z,35.30
2018-08-22T12:25:25.457Z,32.90
2018-08-22T12:27:54.723Z,34.30
2018-08-22T12:30:23.185Z,34.30
2018-08-22T12:32:51.604Z,35.80
2018-08-22T12:35:20.050Z,35.40
2018-08-22T12:37:48.506Z,36.00
2018-08-22T12:40:16.920Z,36.20
2018-08-22T12:42:45.365Z,35.10
2018-08-22T12:45:13.809Z,36.00
2018-08-22T12:47:42.264Z,35.20
2018-08-22T12:50:10.708Z,34.00
2018-08-22T12:52:39.111Z,34.50
2018-08-22T12:55:07.589Z,35.80
2018-08-22T12:57:36.009Z,36.90
2018-08-22T13:00:04.751Z,35.40
2018-08-22T13:02:33.168Z,34.20
2018-08-22T13:05:01.722Z,35.60
2018-08-22T13:07:30.945Z,34.00
2018-08-22T13:09:59.365Z,32.70
2018-08-22T13:12:28.142Z,33.00
2018-08-22T13:14:56.562Z,35.20
2018-08-22T13:17:25.053Z,36.60
2018-08-22T13:19:53.468Z,37.40
2018-08-22T13:22:21.905Z,37.70
2018-08-22T13:24:50.475Z,38.80
2018-08-22T13:27:18.795Z,38.50
2018-08-22T13:29:47.246Z,38.20
2018-08-22T13:32:15.686Z,37.90
2018-08-22T13:34:44.184Z,38.20
2018-08-22T13:37:12.609Z,38.10
2018-08-22T13:39:41.115Z,38.00
2018-08-22T13:42:09.585Z,38.50
2018-08-22T13:44:38.013Z,38.30
2018-08-22T13:47:06.481Z,39.50
2018-08-22T13:49:34.913Z,39.50
2018-08-22T13:52:03.323Z,40.20
2018-08-22T13:54:31.779Z,39.90
2018-08-22T13:57:00.190Z,39.30
2018-08-22T13:59:28.653Z,37.80
2018-08-22T14:01:57.073Z,39.10
2018-08-22T14:04:25.507Z,39.70
2018-08-22T14:06:54.120Z,41.00
2018-08-22T14:09:22.573Z,40.80
2018-08-22T14:11:51.013Z,42.90
2018-08-22T14:14:19.469Z,41.90
2018-08-22T14:16:47.895Z,40.70
2018-08-22T14:19:16.332Z,40.20
2018-08-22T14:21:44.758Z,40.80
2018-08-22T14:24:13.229Z,40.60
2018-08-22T14:26:41.661Z,40.10
2018-08-22T14:29:10.089Z,40.20
2018-08-22T14:31:38.514Z,42.10
2018-08-22T14:34:06.937Z,41.90
2018-08-22T14:36:35.422Z,42.60
2018-08-22T14:39:05.105Z,43.20
2018-08-22T14:41:33.532Z,43.70
2018-08-22T14:44:01.993Z,43.50
2018-08-22T14:46:30.440Z,43.90
2018-08-22T14:48:58.870Z,44.30
2018-08-22T14:51:27.292Z,44.20
2018-08-22T14:53:55.714Z,45.10
2018-08-22T14:56:24.264Z,46.40
2018-08-22T14:58:52.569Z,46.40
2018-08-22T15:01:21.009Z,46.90
2018-08-22T15:03:49.548Z,47.90
2018-08-22T15:06:17.964Z,48.40
2018-08-22T15:08:46.403Z,49.00
2018-08-22T15:11:14.841Z,47.60
2018-08-22T15:13:43.318Z,49.50
2018-08-22T15:16:11.769Z,51.10
2018-08-22T15:18:40.209Z,51.70
2018-08-22T15:21:08.652Z,53.70
2018-08-22T15:23:37.098Z,54.30
2018-08-22T15:26:05.840Z,57.30
2018-08-22T15:28:34.265Z,56.40
2018-08-22T15:31:02.735Z,56.60
2018-08-22T15:33:31.163Z,56.70
2018-08-22T15:35:59.636Z,57.70
2018-08-22T15:38:28.072Z,57.70
2018-08-22T15:40:56.593Z,57.40
2018-08-22T15:43:24.981Z,57.40
2018-08-22T15:45:53.421Z,57.80
2018-08-22T15:48:21.888Z,59.00
2018-08-22T15:50:50.309Z,59.60
2018-08-22T15:53:18.913Z,60.50
2018-08-22T15:55:47.296Z,60.70
2018-08-22T15:58:15.765Z,61.50
2018-08-22T16:00:46.477Z,62.80
2018-08-22T16:03:14.921Z,63.30
2018-08-22T16:05:44.329Z,64.80
2018-08-22T16:08:13.400Z,66.90
2018-08-22T16:10:41.818Z,67.80
2018-08-22T16:13:16.436Z,67.50
2018-08-22T16:15:45.572Z,68.40
2018-08-22T16:18:14.017Z,68.70
2018-08-22T16:20:51.381Z,70.00
2018-08-22T16:23:19.841Z,71.00
2018-08-22T16:25:50.517Z,72.00
2018-08-22T16:28:19.002Z,72.90
2018-08-22T16:30:56.859Z,73.30
2018-08-22T16:33:16.718Z,74.90
2018-08-22T16:35:45.176Z,76.10
2018-08-22T16:38:14.441Z,77.20
2018-08-22T16:40:44.289Z,77.20
2018-08-22T16:43:12.725Z,77.70
2018-08-22T16:45:46.650Z,77.80
2018-08-22T16:48:18.040Z,78.50
2018-08-22T16:50:46.469Z,79.10
2018-08-22T16:53:14.902Z,80.10
2018-08-22T16:55:43.343Z,81.10
2018-08-22T16:58:11.788Z,81.70
2018-08-22T17:00:43.287Z,83.30
2018-08-22T17:03:11.924Z,83.40
2018-08-22T17:05:40.492Z,84.80
2018-08-22T17:08:08.933Z,85.10
2018-08-22T17:10:52.254Z,86.90
2018-08-22T17:13:29.267Z,87.70
2018-08-22T17:15:59.008Z,89.20
2018-08-22T17:18:27.797Z,89.50
2018-08-22T17:20:56.287Z,90.10
2018-08-22T17:23:24.753Z,90.00
2018-08-22T17:25:53.191Z,90.50
2018-08-22T17:28:28.742Z,90.70
2018-08-22T17:30:57.230Z,90.80
2018-08-22T17:33:30.219Z,91.40
2018-08-22T17:35:59.092Z,91.80
2018-08-22T17:38:27.520Z,92.40
2018-08-22T17:40:56.004Z,92.30
2018-08-22T17:43:24.523Z,92.80
2018-08-22T17:45:52.965Z,93.00
2018-08-22T17:48:22.268Z,93.50
2018-08-22T17:50:51.345Z,93.40
2018-08-22T17:53:19.874Z,93.90
2018-08-22T17:55:49.822Z,94.10
2018-08-22T17:58:18.756Z,94.80
2018-08-22T18:00:47.262Z,94.90
2018-08-22T18:03:15.737Z,95.20
2018-08-22T18:05:44.197Z,95.80
2018-08-22T18:08:12.633Z,96.00
2018-08-22T18:10:41.121Z,96.30
2018-08-22T18:13:15.433Z,96.50
2018-08-22T18:15:44.589Z,96.70
2018-08-22T18:18:13.074Z,96.90
2018-08-22T18:20:47.341Z,97.40
2018-08-22T18:23:16.618Z,97.20
2018-08-22T18:25:55.349Z,97.60
2018-08-22T18:28:24.258Z,97.80
2018-08-22T18:30:52.714Z,98.10
2018-08-22T18:33:21.189Z,98.50
2018-08-22T18:35:49.641Z,99.00
2018-08-22T18:38:18.208Z,99.20
2018-08-22T18:40:56.964Z,99.20
2018-08-22T18:43:25.442Z,99.30
2018-08-22T18:46:06.250Z,99.90
2018-08-22T18:48:35.631Z,99.90
2018-08-22T18:51:04.596Z,99.90
2018-08-22T18:53:33.120Z,99.90
2018-08-22T18:56:42.333Z,99.90
2018-08-22T18:59:23.995Z,99.90
2018-08-22T19:01:52.457Z,99.90
2018-08-22T19:04:21.048Z,99.90
2018-08-22T19:06:49.481Z,99.90
2018-08-22T19:09:17.941Z,99.90
2018-08-22T19:11:46.368Z,99.90
2018-08-22T19:14:14.865Z,99.90
2018-08-22T19:16:43.349Z,99.90
2018-08-22T19:19:11.796Z,99.90
2018-08-22T19:21:40.224Z,99.90
2018-08-22T19:24:08.785Z,99.90
2018-08-22T19:26:37.426Z,99.90
2018-08-22T19:29:06.643Z,99.90
2018-08-22T19:31:36.868Z,99.90
2018-08-22T19:34:05.357Z,99.90
2018-08-22T19:36:33.818Z,99.90
2018-08-22T19:39:02.293Z,99.90
2018-08-22T19:41:33.099Z,99.90
2018-08-22T19:44:01.545Z,99.90
2018-08-22T19:46:30.008Z,99.90
2018-08-22T19:48:59.205Z,99.90
2018-08-22T19:51:27.649Z,99.90
2018-08-22T19:54:07.010Z,99.90
2018-08-22T19:56:35.538Z,99.90
2018-08-22T19:59:04.837Z,99.90
2018-08-22T20:01:34.491Z,99.90
2018-08-22T20:04:02.942Z,99.90
2018-08-22T20:06:31.421Z,99.90
2018-08-22T20:09:00.697Z,99.90
2018-08-22T20:11:31.739Z,99.90
2018-08-22T20:14:03.080Z,99.90
2018-08-22T20:16:31.570Z,99.90
2018-08-22T20:19:01.153Z,99.90
2018-08-22T20:21:32.764Z,99.90
2018-08-22T20:24:01.978Z,99.90
2018-08-22T20:26:30.824Z,99.90
2018-08-22T20:29:00.505Z,99.90
2018-08-22T20:31:28.935Z,99.90
2018-08-22T20:34:06.793Z,99.90
2018-08-22T20:36:35.315Z,99.90
2018-08-22T20:39:06.401Z,99.90
2018-08-22T20:41:35.045Z,99.90
2018-08-22T20:44:06.425Z,99.90
2018-08-22T20:46:34.889Z,99.90
2018-08-22T20:49:03.343Z,99.90
2018-08-22T20:51:32.374Z,99.90
2018-08-22T20:54:06.076Z,99.90
2018-08-22T20:56:34.636Z,99.90
2018-08-22T20:59:03.121Z,99.90
2018-08-22T21:01:31.549Z,99.90
2018-08-22T21:04:00.024Z,99.90
2018-08-22T21:06:28.463Z,99.90
2018-08-22T21:08:56.905Z,99.90
2018-08-22T21:11:25.349Z,99.90
2018-08-22T21:13:53.835Z,99.90
2018-08-22T21:16:22.305Z,99.90
2018-08-22T21:18:51.637Z,99.90
2018-08-22T21:21:24.426Z,99.90
2018-08-22T21:23:52.984Z,99.90
2018-08-22T21:26:34.403Z,99.90
2018-08-22T21:29:02.906Z,99.90
2018-08-22T21:31:31.421Z,99.90
2018-08-22T21:34:06.897Z,99.90
2018-08-22T21:36:36.417Z,99.90
2018-08-22T21:39:11.218Z,99.90
2018-08-22T21:41:39.997Z,99.90
2018-08-22T21:44:08.431Z,99.90
2018-08-22T21:46:36.881Z,99.90
2018-08-22T21:49:12.478Z,99.90
2018-08-22T21:51:41.645Z,99.90
2018-08-22T21:54:11.381Z,99.90
2018-08-22T21:56:40.198Z,99.90
2018-08-22T21:59:09.374Z,99.90
2018-08-22T22:01:46.897Z,99.90
2018-08-22T22:04:20.134Z,99.90
2018-08-22T22:06:48.578Z,99.90
2018-08-22T22:09:17.056Z,99.90
2018-08-22T22:11:45.993Z,99.90
2018-08-22T22:14:19.394Z,99.90
2018-08-22T22:16:48.337Z,99.90
2018-08-22T22:19:16.782Z,99.90
2018-08-22T22:21:45.243Z,99.90
2018-08-22T22:24:13.672Z,99.90
2018-08-22T22:26:42.145Z,99.90
2018-08-22T22:29:10.557Z,99.90
2018-08-22T22:31:39.009Z,99.90
2018-08-22T22:34:09.935Z,99.90
2018-08-22T22:36:38.392Z,99.90
2018-08-22T22:39:20.528Z,99.90
2018-08-22T22:41:48.992Z,99.90
2018-08-22T22:44:17.522Z,99.90
2018-08-22T22:46:45.965Z,99.90
2018-08-22T22:49:14.511Z,99.90
2018-08-22T22:51:42.953Z,99.90
2018-08-22T22:54:11.441Z,99.90
2018-08-22T22:56:39.876Z,99.90
2018-08-22T22:59:08.445Z,99.90
2018-08-22T23:01:36.876Z,99.90
2018-08-22T23:04:05.546Z,99.90
2018-08-22T23:06:34.029Z,99.90
2018-08-22T23:09:02.509Z,99.90
2018-08-22T23:11:30.957Z,99.90
2018-08-22T23:13:59.389Z,99.90
2018-08-22T23:16:33.280Z,99.90
2018-08-22T23:19:01.714Z,99.90
2018-08-22T23:21:30.151Z,99.90
2018-08-22T23:23:58.637Z,99.90
2018-08-22T23:26:27.094Z,99.90
2018-08-22T23:28:55.533Z,99.90
2018-08-22T23:31:23.965Z,99.90
2018-08-22T23:33:52.424Z,99.90
2018-08-22T23:36:20.859Z,99.90
2018-08-22T23:38:49.294Z,99.90
2018-08-22T23:41:17.748Z,99.90
2018-08-22T23:43:50.536Z,99.90
2018-08-22T23:46:19.201Z,99.90
2018-08-22T23:48:56.833Z,99.90
2018-08-22T23:51:25.312Z,99.90
2018-08-22T23:53:57.850Z,99.90
2018-08-22T23:56:28.292Z,99.90
2018-08-22T23:58:57.405Z,99.90
